createdAt,value
2023-01-31T00:01:52.565Z,6.93
2023-01-31T00:04:20.125Z,3.93
2023-01-31T00:06:51.028Z,5.13
2023-01-31T00:09:19.015Z,7.43
2023-01-31T00:11:46.791Z,15.23
2023-01-31T00:14:19.948Z,5.77
2023-01-31T00:16:48.223Z,5.00
2023-01-31T00:19:17.519Z,4.93
2023-01-31T00:21:45.850Z,13.83
2023-01-31T00:24:13.756Z,7.27
2023-01-31T00:27:03.934Z,12.27
2023-01-31T00:29:33.254Z,5.23
2023-01-31T00:32:04.115Z,6.93
2023-01-31T00:34:35.473Z,5.60
2023-01-31T00:37:03.460Z,4.33
2023-01-31T00:39:31.129Z,3.83
2023-01-31T00:41:58.829Z,6.93
2023-01-31T00:44:26.375Z,5.73
2023-01-31T00:46:54.000Z,7.37
2023-01-31T00:49:23.817Z,8.43
2023-01-31T00:51:52.864Z,9.30
2023-01-31T00:54:20.592Z,9.40
2023-01-31T00:56:48.210Z,7.33
2023-01-31T00:59:16.151Z,5.13
2023-01-31T01:01:43.999Z,9.63
2023-01-31T01:04:11.683Z,7.63
2023-01-31T01:06:40.132Z,3.90
2023-01-31T01:09:09.162Z,12.43
2023-01-31T01:11:37.167Z,4.70
2023-01-31T01:14:05.181Z,4.97
2023-01-31T01:16:35.566Z,7.07
2023-01-31T01:19:05.224Z,11.40
2023-01-31T01:21:38.062Z,9.70
2023-01-31T01:24:07.755Z,6.23
2023-01-31T01:26:36.841Z,4.47
2023-01-31T01:29:05.480Z,5.73
2023-01-31T01:31:33.165Z,6.97
2023-01-31T01:34:02.802Z,6.43
2023-01-31T01:36:34.774Z,6.70
2023-01-31T01:39:02.679Z,8.30
2023-01-31T01:41:33.415Z,3.87
2023-01-31T01:44:04.099Z,15.03
2023-01-31T01:46:40.116Z,4.03
2023-01-31T01:49:28.084Z,6.10
2023-01-31T01:51:58.888Z,7.40
2023-01-31T01:54:29.875Z,14.87
2023-01-31T01:57:02.771Z,7.70
2023-01-31T01:59:36.193Z,10.13
2023-01-31T02:02:04.998Z,7.50
2023-01-31T02:04:36.996Z,6.43
2023-01-31T02:07:05.435Z,7.00
2023-01-31T02:09:38.251Z,8.10
2023-01-31T02:12:06.150Z,12.63
2023-01-31T02:14:35.165Z,11.57
2023-01-31T02:17:02.824Z,14.47
2023-01-31T02:19:37.175Z,7.50
2023-01-31T02:22:23.026Z,12.43
2023-01-31T02:25:31.114Z,6.13
2023-01-31T02:28:23.093Z,5.67
2023-01-31T02:31:37.643Z,5.87
2023-01-31T02:34:12.087Z,9.67
2023-01-31T02:36:52.929Z,7.63
2023-01-31T02:39:29.711Z,3.90
2023-01-31T02:42:02.029Z,9.67
2023-01-31T02:45:08.047Z,12.00
2023-01-31T02:47:47.216Z,6.70
2023-01-31T02:50:25.902Z,6.80
2023-01-31T02:52:59.995Z,6.73
2023-01-31T02:55:51.098Z,4.87
2023-01-31T02:58:23.417Z,8.10
2023-01-31T03:00:51.859Z,4.50
2023-01-31T03:03:23.039Z,5.33
2023-01-31T03:06:12.878Z,5.23
2023-01-31T03:08:44.481Z,11.53
2023-01-31T03:11:12.449Z,11.67
2023-01-31T03:13:50.404Z,4.73
2023-01-31T03:16:45.795Z,3.30
2023-01-31T03:19:17.579Z,6.17
2023-01-31T03:21:53.045Z,6.53
2023-01-31T03:24:26.475Z,7.97
2023-01-31T03:26:56.851Z,12.80
2023-01-31T03:29:25.977Z,4.10
2023-01-31T03:31:58.674Z,3.37
2023-01-31T03:34:27.794Z,8.03
2023-01-31T03:37:06.459Z,7.53
2023-01-31T03:39:40.861Z,5.50
2023-01-31T03:42:13.439Z,11.00
2023-01-31T03:44:52.238Z,5.97
2023-01-31T03:47:25.702Z,13.80
2023-01-31T03:49:55.439Z,6.07
2023-01-31T03:52:32.486Z,6.00
2023-01-31T03:55:05.457Z,2.77
2023-01-31T03:57:36.651Z,5.87
2023-01-31T04:00:09.780Z,7.13
2023-01-31T04:02:39.396Z,10.87
2023-01-31T04:05:11.068Z,11.63
2023-01-31T04:07:41.575Z,7.50
2023-01-31T04:10:14.638Z,4.57
2023-01-31T04:12:43.641Z,10.37
2023-01-31T04:15:12.540Z,5.60
2023-01-31T04:17:40.307Z,11.40
2023-01-31T04:20:10.847Z,2.60
2023-01-31T04:22:40.442Z,5.23
2023-01-31T04:25:09.072Z,18.03
2023-01-31T04:27:37.355Z,7.63
2023-01-31T04:30:05.810Z,5.33
2023-01-31T04:32:33.593Z,11.67
2023-01-31T04:35:02.410Z,5.87
2023-01-31T04:37:30.321Z,8.23
2023-01-31T04:39:59.271Z,5.03
2023-01-31T04:42:27.015Z,7.53
2023-01-31T04:44:54.651Z,5.27
2023-01-31T04:47:23.801Z,5.97
2023-01-31T04:49:51.442Z,4.77
2023-01-31T04:52:21.364Z,11.87
2023-01-31T04:54:48.930Z,15.87
2023-01-31T04:57:17.912Z,2.37
2023-01-31T04:59:50.182Z,5.00
2023-01-31T05:02:20.286Z,2.83
2023-01-31T05:04:48.145Z,8.03
2023-01-31T05:07:15.796Z,6.73
2023-01-31T05:09:44.023Z,4.00
2023-01-31T05:12:13.909Z,8.07
2023-01-31T05:14:42.974Z,8.60
2023-01-31T05:17:10.863Z,12.03
2023-01-31T05:19:38.701Z,9.37
2023-01-31T05:22:06.488Z,4.67
2023-01-31T05:24:34.740Z,15.40
2023-01-31T05:27:03.527Z,79.23
2023-01-31T05:29:33.600Z,104.97
2023-01-31T05:32:04.278Z,46.50
2023-01-31T05:34:33.661Z,26.07
2023-01-31T05:37:04.749Z,12.57
2023-01-31T05:39:32.719Z,18.30
2023-01-31T05:42:00.373Z,7.43
2023-01-31T05:44:28.000Z,10.57
2023-01-31T05:46:55.584Z,12.77
2023-01-31T05:49:24.542Z,9.53
2023-01-31T05:51:52.107Z,6.27
2023-01-31T05:54:19.878Z,9.03
2023-01-31T05:56:47.793Z,7.23
2023-01-31T05:59:17.323Z,8.13
2023-01-31T06:01:45.045Z,7.67
2023-01-31T06:04:14.971Z,8.67
2023-01-31T06:06:45.304Z,5.90
2023-01-31T06:09:13.055Z,8.93
2023-01-31T06:11:40.985Z,4.00
2023-01-31T06:14:09.564Z,3.43
2023-01-31T06:16:37.481Z,7.17
2023-01-31T06:19:08.625Z,7.80
2023-01-31T06:21:36.663Z,11.17
2023-01-31T06:24:06.718Z,7.80
2023-01-31T06:26:37.216Z,5.50
2023-01-31T06:29:05.415Z,7.80
2023-01-31T06:31:34.317Z,15.97
2023-01-31T06:34:02.037Z,7.37
2023-01-31T06:36:29.760Z,7.30
2023-01-31T06:38:58.121Z,5.50
2023-01-31T06:41:27.160Z,8.07
2023-01-31T06:43:55.269Z,8.93
2023-01-31T06:46:23.011Z,3.50
2023-01-31T06:48:50.619Z,13.60
2023-01-31T06:51:18.588Z,8.13
2023-01-31T06:53:46.288Z,2.97
2023-01-31T06:56:24.212Z,7.87
2023-01-31T06:58:54.804Z,16.43
2023-01-31T07:01:24.352Z,10.23
2023-01-31T07:03:52.045Z,7.23
2023-01-31T07:06:23.046Z,8.33
2023-01-31T07:08:56.198Z,7.60
2023-01-31T07:11:24.228Z,3.90
2023-01-31T07:13:53.101Z,15.90
2023-01-31T07:16:25.005Z,5.10
2023-01-31T07:18:53.767Z,7.50
2023-01-31T07:21:24.514Z,3.70
2023-01-31T07:23:53.352Z,10.53
2023-01-31T07:26:21.039Z,4.20
2023-01-31T07:28:49.121Z,5.90
2023-01-31T07:31:16.871Z,2.60
2023-01-31T07:33:45.942Z,1.90
2023-01-31T07:36:15.925Z,5.73
2023-01-31T07:38:44.041Z,3.47
2023-01-31T07:41:14.510Z,11.43
2023-01-31T07:43:42.135Z,7.67
2023-01-31T07:46:11.291Z,7.47
2023-01-31T07:48:39.202Z,9.17
2023-01-31T07:51:08.733Z,10.53
2023-01-31T07:53:42.190Z,6.23
2023-01-31T07:56:17.642Z,14.73
2023-01-31T07:58:47.390Z,6.50
2023-01-31T08:01:34.355Z,7.43
2023-01-31T08:04:14.507Z,11.93
2023-01-31T08:06:51.326Z,5.90
2023-01-31T08:09:19.193Z,10.63
2023-01-31T08:11:48.073Z,10.20
2023-01-31T08:14:15.716Z,2.73
2023-01-31T08:16:43.403Z,8.77
2023-01-31T08:19:12.135Z,10.93
2023-01-31T08:21:39.873Z,7.40
2023-01-31T08:24:11.630Z,7.27
2023-01-31T08:26:39.315Z,5.93
2023-01-31T08:29:07.010Z,6.83
2023-01-31T08:31:34.910Z,6.77
2023-01-31T08:34:03.295Z,11.43
2023-01-31T08:36:34.018Z,10.97
2023-01-31T08:39:01.883Z,11.43
2023-01-31T08:41:33.018Z,16.93
2023-01-31T08:44:02.848Z,5.93
2023-01-31T08:46:33.841Z,11.93
2023-01-31T08:49:02.956Z,6.40
2023-01-31T08:51:32.527Z,7.70
2023-01-31T08:54:00.206Z,7.90
2023-01-31T08:56:28.194Z,7.33
2023-01-31T08:58:58.715Z,15.43
2023-01-31T09:01:26.816Z,11.37
2023-01-31T09:03:57.122Z,10.13
2023-01-31T09:06:27.368Z,16.90
2023-01-31T09:08:56.745Z,15.10
2023-01-31T09:11:31.687Z,8.03
2023-01-31T09:14:00.862Z,13.67
2023-01-31T09:16:29.115Z,12.87
2023-01-31T09:18:57.372Z,18.80
2023-01-31T09:21:27.862Z,14.90
2023-01-31T09:24:03.773Z,12.33
2023-01-31T09:26:32.329Z,12.20
2023-01-31T09:29:01.970Z,13.23
2023-01-31T09:31:30.313Z,15.97
2023-01-31T09:33:58.436Z,12.40
2023-01-31T09:36:27.254Z,12.10
2023-01-31T09:38:56.700Z,15.63
2023-01-31T09:41:29.806Z,12.10
2023-01-31T09:44:03.812Z,12.93
2023-01-31T09:46:37.737Z,10.13
2023-01-31T09:49:09.279Z,16.13
2023-01-31T09:51:40.058Z,11.47
2023-01-31T09:54:18.753Z,12.40
2023-01-31T09:56:57.843Z,15.40
2023-01-31T09:59:33.799Z,19.87
2023-01-31T10:02:39.425Z,16.50
2023-01-31T10:05:21.662Z,10.97
2023-01-31T10:08:00.593Z,23.13
2023-01-31T10:10:37.965Z,17.20
2023-01-31T10:13:11.733Z,12.90
2023-01-31T10:15:46.506Z,12.40
2023-01-31T10:18:21.235Z,7.53
2023-01-31T10:20:52.484Z,9.10
2023-01-31T10:23:29.277Z,9.37
2023-01-31T10:26:02.884Z,8.73
2023-01-31T10:28:36.801Z,12.03
2023-01-31T10:31:12.956Z,9.93
2023-01-31T10:33:48.998Z,11.13
2023-01-31T10:36:30.401Z,17.93
2023-01-31T10:39:04.029Z,8.57
2023-01-31T10:41:42.167Z,13.00
2023-01-31T10:44:21.226Z,8.37
2023-01-31T10:46:52.457Z,7.00
2023-01-31T10:49:25.576Z,8.27
2023-01-31T10:52:13.225Z,8.37
2023-01-31T10:54:53.248Z,11.77
2023-01-31T10:57:20.955Z,12.73
2023-01-31T10:59:50.228Z,9.20
2023-01-31T11:02:22.212Z,10.13
2023-01-31T11:04:54.247Z,10.50
2023-01-31T11:07:23.255Z,10.23
2023-01-31T11:09:54.135Z,9.30
2023-01-31T11:12:22.819Z,15.33
2023-01-31T11:15:07.823Z,12.63
2023-01-31T11:17:40.155Z,10.80
2023-01-31T11:20:20.138Z,6.50
2023-01-31T11:22:48.092Z,10.87
2023-01-31T11:25:21.045Z,9.67
2023-01-31T11:27:52.122Z,9.07
2023-01-31T11:30:24.235Z,11.20
2023-01-31T11:32:53.352Z,6.70
2023-01-31T11:35:28.140Z,17.73
2023-01-31T11:37:57.378Z,12.47
2023-01-31T11:40:30.819Z,8.80
2023-01-31T11:43:00.041Z,7.87
2023-01-31T11:45:31.280Z,11.90
2023-01-31T11:48:08.228Z,7.93
2023-01-31T11:50:39.728Z,7.60
2023-01-31T11:53:18.559Z,5.13
2023-01-31T11:55:48.876Z,8.13
2023-01-31T11:58:20.796Z,5.57
2023-01-31T12:00:57.998Z,7.53
2023-01-31T12:03:28.837Z,10.10
2023-01-31T12:06:02.186Z,6.97
2023-01-31T12:08:36.389Z,9.60
2023-01-31T12:11:06.495Z,3.90
2023-01-31T12:13:47.480Z,12.83
2023-01-31T12:16:18.320Z,7.07
2023-01-31T12:19:05.971Z,8.53
2023-01-31T12:21:51.151Z,16.47
2023-01-31T12:24:32.294Z,6.47
2023-01-31T12:27:12.870Z,9.60
2023-01-31T12:29:59.770Z,9.87
2023-01-31T12:32:50.699Z,8.00
2023-01-31T12:35:31.671Z,9.13
2023-01-31T12:38:14.088Z,14.83
2023-01-31T12:40:49.874Z,6.80
2023-01-31T12:43:38.535Z,4.00
2023-01-31T12:46:15.752Z,9.27
2023-01-31T12:49:42.767Z,7.20
2023-01-31T12:52:20.302Z,5.60
2023-01-31T12:54:58.607Z,16.90
2023-01-31T12:57:34.882Z,5.37
2023-01-31T13:00:17.964Z,8.60
2023-01-31T13:03:01.574Z,13.70
2023-01-31T13:05:35.542Z,11.03
2023-01-31T13:08:11.181Z,10.47
2023-01-31T13:10:47.107Z,13.87
2023-01-31T13:13:20.468Z,14.07
2023-01-31T13:15:52.133Z,16.03
2023-01-31T13:18:21.882Z,6.47
2023-01-31T13:20:55.401Z,6.20
2023-01-31T13:23:31.556Z,8.57
2023-01-31T13:26:06.580Z,10.23
2023-01-31T13:28:40.422Z,9.53
2023-01-31T13:31:16.811Z,6.37
2023-01-31T13:33:50.299Z,7.60
2023-01-31T13:36:26.492Z,13.27
2023-01-31T13:38:56.945Z,8.03
2023-01-31T13:41:29.342Z,7.40
2023-01-31T13:43:57.905Z,8.57
2023-01-31T13:46:30.691Z,10.93
2023-01-31T13:49:02.067Z,8.80
2023-01-31T13:51:38.086Z,13.03
2023-01-31T13:54:17.107Z,10.53
2023-01-31T13:56:51.281Z,8.00
2023-01-31T13:59:22.804Z,8.63
2023-01-31T14:01:52.357Z,10.53
2023-01-31T14:04:29.569Z,5.63
2023-01-31T14:07:25.190Z,11.07
2023-01-31T14:10:38.700Z,11.17
2023-01-31T14:13:42.030Z,15.43
2023-01-31T14:16:46.342Z,11.43
2023-01-31T14:19:53.297Z,12.27
2023-01-31T14:22:22.471Z,22.23
2023-01-31T14:25:01.143Z,7.43
2023-01-31T14:27:32.975Z,12.53
2023-01-31T14:30:25.839Z,8.20
2023-01-31T14:33:08.563Z,6.90
2023-01-31T14:35:56.311Z,14.47
2023-01-31T14:38:40.529Z,8.27
2023-01-31T14:41:19.169Z,14.07
2023-01-31T14:43:59.327Z,13.07
2023-01-31T14:47:08.007Z,10.13
2023-01-31T14:49:54.004Z,8.87
2023-01-31T14:52:34.922Z,9.93
2023-01-31T14:55:27.140Z,8.60
2023-01-31T14:57:58.598Z,14.67
2023-01-31T15:00:29.733Z,11.93
2023-01-31T15:03:06.543Z,12.53
2023-01-31T15:05:43.094Z,8.30
2023-01-31T15:08:43.436Z,7.30
2023-01-31T15:11:42.406Z,7.90
2023-01-31T15:14:34.602Z,13.53
2023-01-31T15:17:07.640Z,16.27
2023-01-31T15:19:49.003Z,9.70
2023-01-31T15:22:21.866Z,11.33
2023-01-31T15:24:52.507Z,9.27
2023-01-31T15:27:24.714Z,13.23
2023-01-31T15:30:03.075Z,8.27
2023-01-31T15:32:40.524Z,23.00
2023-01-31T15:35:19.232Z,14.23
2023-01-31T15:37:48.728Z,11.97
2023-01-31T15:40:21.403Z,11.30
2023-01-31T15:42:48.986Z,13.47
2023-01-31T15:45:22.968Z,7.17
2023-01-31T15:47:58.607Z,9.00
2023-01-31T15:50:35.305Z,9.70
2023-01-31T15:53:07.472Z,11.63
2023-01-31T15:55:36.963Z,15.37
2023-01-31T15:58:07.098Z,11.40
2023-01-31T16:00:39.037Z,10.43
2023-01-31T16:03:08.425Z,12.77
2023-01-31T16:05:40.213Z,10.70
2023-01-31T16:08:19.356Z,13.53
2023-01-31T16:10:49.789Z,9.63
2023-01-31T16:13:18.851Z,8.33
2023-01-31T16:15:46.888Z,14.17
2023-01-31T16:18:15.309Z,12.87
2023-01-31T16:20:54.888Z,8.10
2023-01-31T16:23:29.277Z,8.57
2023-01-31T16:26:02.749Z,9.43
2023-01-31T16:28:40.392Z,13.73
2023-01-31T16:31:11.189Z,9.50
2023-01-31T16:33:40.097Z,10.63
2023-01-31T16:36:17.226Z,7.23
2023-01-31T16:38:56.819Z,15.80
2023-01-31T16:41:41.283Z,12.83
2023-01-31T16:44:17.701Z,6.50
2023-01-31T16:46:56.594Z,7.40
2023-01-31T16:49:28.306Z,6.03
2023-01-31T16:52:11.228Z,7.87
2023-01-31T16:54:50.540Z,12.43
2023-01-31T16:57:24.205Z,7.63
2023-01-31T16:59:53.902Z,9.90
2023-01-31T17:02:28.769Z,7.13
2023-01-31T17:05:01.180Z,7.43
2023-01-31T17:07:33.425Z,7.30
2023-01-31T17:10:04.054Z,5.70
2023-01-31T17:12:35.015Z,9.77
2023-01-31T17:15:04.033Z,6.63
2023-01-31T17:17:34.538Z,5.40
2023-01-31T17:20:02.422Z,5.40
2023-01-31T17:22:31.616Z,5.80
2023-01-31T17:24:59.418Z,12.10
2023-01-31T17:27:27.091Z,3.40
2023-01-31T17:29:55.088Z,6.60
2023-01-31T17:32:22.831Z,5.23
2023-01-31T17:34:50.370Z,4.57
2023-01-31T17:37:30.095Z,5.80
2023-01-31T17:40:00.814Z,5.93
2023-01-31T17:42:28.542Z,7.80
2023-01-31T17:44:56.214Z,4.40
2023-01-31T17:47:26.883Z,4.27
2023-01-31T17:49:55.468Z,3.90
2023-01-31T17:52:23.228Z,3.03
2023-01-31T17:54:51.014Z,5.43
2023-01-31T17:57:25.948Z,3.67
2023-01-31T17:59:57.738Z,4.40
2023-01-31T18:02:26.157Z,5.63
2023-01-31T18:04:55.150Z,2.80
2023-01-31T18:07:23.020Z,1.90
2023-01-31T18:09:51.858Z,4.43
2023-01-31T18:12:21.086Z,3.23
2023-01-31T18:14:48.803Z,1.97
2023-01-31T18:17:16.810Z,2.23
2023-01-31T18:19:46.596Z,2.00
2023-01-31T18:22:14.791Z,1.90
2023-01-31T18:24:42.422Z,1.90
2023-01-31T18:27:11.630Z,3.27
2023-01-31T18:29:41.344Z,4.07
2023-01-31T18:32:12.408Z,2.50
2023-01-31T18:34:40.037Z,1.60
2023-01-31T18:37:19.196Z,2.43
2023-01-31T18:39:49.901Z,1.57
2023-01-31T18:42:18.225Z,1.80
2023-01-31T18:44:48.577Z,2.23
2023-01-31T18:47:19.243Z,6.20
2023-01-31T18:49:46.923Z,1.90
2023-01-31T18:52:17.012Z,2.73
2023-01-31T18:54:45.434Z,1.87
2023-01-31T18:57:13.408Z,1.80
2023-01-31T18:59:41.661Z,1.43
2023-01-31T19:02:11.857Z,1.40
2023-01-31T19:04:46.852Z,1.30
2023-01-31T19:07:14.497Z,1.90
2023-01-31T19:09:42.104Z,1.93
2023-01-31T19:12:09.971Z,1.93
2023-01-31T19:14:39.677Z,1.40
2023-01-31T19:17:07.324Z,1.63
2023-01-31T19:19:36.207Z,1.87
2023-01-31T19:22:06.401Z,1.80
2023-01-31T19:24:34.229Z,2.30
2023-01-31T19:27:01.997Z,1.50
2023-01-31T19:29:29.711Z,2.03
2023-01-31T19:31:58.700Z,2.00
2023-01-31T19:34:26.716Z,1.70
2023-01-31T19:36:56.753Z,1.67
2023-01-31T19:39:26.635Z,2.27
2023-01-31T19:41:57.018Z,1.87
2023-01-31T19:44:26.530Z,2.40
2023-01-31T19:46:54.298Z,1.60
2023-01-31T19:49:23.203Z,2.93
2023-01-31T19:51:51.275Z,2.03
2023-01-31T19:54:21.096Z,2.07
2023-01-31T19:56:49.211Z,1.50
2023-01-31T19:59:16.943Z,1.70
2023-01-31T20:01:45.361Z,1.80
2023-01-31T20:04:13.468Z,1.47
2023-01-31T20:06:41.208Z,3.00
2023-01-31T20:09:20.343Z,2.10
2023-01-31T20:12:02.295Z,1.60
2023-01-31T20:14:30.374Z,1.50
2023-01-31T20:16:58.476Z,1.77
2023-01-31T20:19:29.898Z,1.40
2023-01-31T20:21:58.669Z,1.43
2023-01-31T20:24:26.432Z,1.97
2023-01-31T20:27:01.231Z,1.63
2023-01-31T20:29:31.840Z,1.87
2023-01-31T20:32:01.133Z,2.80
2023-01-31T20:34:28.762Z,1.83
2023-01-31T20:36:56.717Z,2.03
2023-01-31T20:39:25.461Z,2.43
2023-01-31T20:41:56.783Z,1.60
2023-01-31T20:44:28.197Z,1.77
2023-01-31T20:46:58.683Z,3.23
2023-01-31T20:49:28.754Z,1.73
2023-01-31T20:51:56.552Z,1.70
2023-01-31T20:54:24.718Z,2.03
2023-01-31T20:56:53.144Z,1.53
2023-01-31T20:59:20.853Z,1.53
2023-01-31T21:01:57.621Z,1.60
2023-01-31T21:04:25.486Z,1.70
2023-01-31T21:06:53.406Z,1.90
2023-01-31T21:09:23.157Z,3.10
2023-01-31T21:11:51.080Z,1.93
2023-01-31T21:14:18.972Z,1.80
2023-01-31T21:16:48.652Z,1.30
2023-01-31T21:19:19.153Z,1.80
2023-01-31T21:21:47.069Z,1.33
2023-01-31T21:24:17.182Z,3.63
2023-01-31T21:26:45.261Z,2.30
2023-01-31T21:29:13.001Z,1.97
2023-01-31T21:31:40.905Z,2.13
2023-01-31T21:34:08.618Z,1.87
2023-01-31T21:36:46.324Z,1.90
2023-01-31T21:39:13.991Z,1.50
2023-01-31T21:41:59.448Z,2.40
2023-01-31T21:44:28.334Z,1.73
2023-01-31T21:46:55.987Z,2.00
2023-01-31T21:49:23.723Z,1.70
2023-01-31T21:51:52.804Z,2.13
2023-01-31T21:54:20.400Z,1.90
2023-01-31T21:56:48.305Z,1.47
2023-01-31T21:59:16.288Z,2.27
2023-01-31T22:01:43.852Z,2.87
2023-01-31T22:04:11.604Z,2.00
2023-01-31T22:06:41.349Z,2.13
2023-01-31T22:09:12.676Z,2.97
2023-01-31T22:11:40.638Z,2.13
2023-01-31T22:14:10.250Z,4.00
2023-01-31T22:16:39.721Z,2.33
2023-01-31T22:19:08.043Z,1.90
2023-01-31T22:21:37.508Z,2.27
2023-01-31T22:24:07.307Z,1.87
2023-01-31T22:26:38.694Z,2.00
2023-01-31T22:29:08.344Z,9.47
2023-01-31T22:31:37.036Z,1.77
2023-01-31T22:34:05.520Z,2.37
2023-01-31T22:36:33.468Z,3.57
2023-01-31T22:39:01.264Z,1.90
2023-01-31T22:41:29.258Z,3.20
2023-01-31T22:43:58.468Z,1.47
2023-01-31T22:46:28.219Z,1.40
2023-01-31T22:48:57.088Z,2.33
2023-01-31T22:51:26.678Z,5.80
2023-01-31T22:53:54.945Z,3.33
2023-01-31T22:56:24.845Z,2.03
2023-01-31T22:58:56.962Z,2.47
2023-01-31T23:01:29.295Z,1.60
2023-01-31T23:03:58.607Z,1.83
2023-01-31T23:06:27.641Z,4.40
2023-01-31T23:08:55.701Z,5.00
2023-01-31T23:11:24.338Z,1.93
2023-01-31T23:13:52.204Z,1.80
2023-01-31T23:16:42.909Z,1.80
2023-01-31T23:19:12.132Z,1.53
2023-01-31T23:21:42.663Z,1.63
2023-01-31T23:24:11.018Z,1.67
2023-01-31T23:26:39.934Z,1.73
2023-01-31T23:29:07.878Z,2.50
2023-01-31T23:31:35.770Z,1.87
2023-01-31T23:34:06.024Z,1.60
2023-01-31T23:36:35.076Z,1.80
2023-01-31T23:39:02.900Z,4.23
2023-01-31T23:41:30.412Z,3.60
2023-01-31T23:43:58.420Z,1.97
2023-01-31T23:46:26.150Z,2.27
2023-01-31T23:48:54.568Z,2.60
2023-01-31T23:51:22.174Z,2.37
2023-01-31T23:53:51.139Z,3.30
2023-01-31T23:56:18.848Z,2.43
2023-01-31T23:58:46.470Z,1.80
